sensor_id;sensor_type;location;lat;lon;timestamp;pressure;altitude;pressure_sealevel;temperature;humidity
59274;BME280;45044;41.572;24.730;2024-03-22T00:01:11;91338.38;;;-0.38;100.00
59274;BME280;45044;41.572;24.730;2024-03-22T00:03:37;91344.63;;;-0.56;100.00
59274;BME280;45044;41.572;24.730;2024-03-22T00:06:03;91342.03;;;-0.39;100.00
59274;BME280;45044;41.572;24.730;2024-03-22T00:08:28;91338.06;;;-0.27;100.00
59274;BME280;45044;41.572;24.730;2024-03-22T00:10:54;91336.84;;;-0.12;100.00
59274;BME280;45044;41.572;24.730;2024-03-22T00:13:20;91333.38;;;-0.07;100.00
59274;BME280;45044;41.572;24.730;2024-03-22T00:15:45;91330.16;;;-0.04;100.00
59274;BME280;45044;41.572;24.730;2024-03-22T00:18:11;91327.59;;;-0.22;100.00
59274;BME280;45044;41.572;24.730;2024-03-22T00:20:37;91329.59;;;-0.28;100.00
59274;BME280;45044;41.572;24.730;2024-03-22T00:23:07;91328.66;;;-0.32;100.00
59274;BME280;45044;41.572;24.730;2024-03-22T00:25:32;91332.28;;;-0.42;100.00
59274;BME280;45044;41.572;24.730;2024-03-22T00:27:58;91332.28;;;-0.42;100.00
59274;BME280;45044;41.572;24.730;2024-03-22T00:30:24;91333.38;;;-0.61;100.00
59274;BME280;45044;41.572;24.730;2024-03-22T00:32:50;91327.28;;;-0.47;100.00
59274;BME280;45044;41.572;24.730;2024-03-22T00:35:16;91326.22;;;-0.55;100.00
59274;BME280;45044;41.572;24.730;2024-03-22T00:37:42;91321.81;;;-0.54;100.00
59274;BME280;45044;41.572;24.730;2024-03-22T00:40:08;91316.06;;;-0.42;100.00
59274;BME280;45044;41.572;24.730;2024-03-22T00:42:33;91314.81;;;-0.45;100.00
59274;BME280;45044;41.572;24.730;2024-03-22T00:44:59;91312.41;;;-0.59;100.00
59274;BME280;45044;41.572;24.730;2024-03-22T00:47:25;91319.06;;;-0.49;100.00
59274;BME280;45044;41.572;24.730;2024-03-22T00:49:50;91316.34;;;-0.62;100.00
59274;BME280;45044;41.572;24.730;2024-03-22T00:52:16;91314.50;;;-0.88;100.00
59274;BME280;45044;41.572;24.730;2024-03-22T00:54:42;91312.69;;;-0.69;100.00
59274;BME280;45044;41.572;24.730;2024-03-22T00:57:08;91303.84;;;-0.95;100.00
59274;BME280;45044;41.572;24.730;2024-03-22T00:59:34;91306.47;;;-0.77;100.00
59274;BME280;45044;41.572;24.730;2024-03-22T01:02:03;91312.38;;;-0.86;100.00
59274;BME280;45044;41.572;24.730;2024-03-22T01:04:29;91314.75;;;-0.98;100.00
59274;BME280;45044;41.572;24.730;2024-03-22T01:06:54;91311.00;;;-0.92;100.00
59274;BME280;45044;41.572;24.730;2024-03-22T01:09:20;91304.00;;;-1.00;100.00
59274;BME280;45044;41.572;24.730;2024-03-22T01:11:46;91306.59;;;-1.00;100.00
59274;BME280;45044;41.572;24.730;2024-03-22T01:14:12;91306.59;;;-1.00;100.00
59274;BME280;45044;41.572;24.730;2024-03-22T01:16:38;91302.00;;;-1.03;100.00
59274;BME280;45044;41.572;24.730;2024-03-22T01:19:03;91301.41;;;-1.09;100.00
59274;BME280;45044;41.572;24.730;2024-03-22T01:21:29;91304.91;;;-0.87;100.00
59274;BME280;45044;41.572;24.730;2024-03-22T01:23:55;91309.75;;;-1.03;100.00
59274;BME280;45044;41.572;24.730;2024-03-22T01:26:20;91316.44;;;-1.02;100.00
59274;BME280;45044;41.572;24.730;2024-03-22T01:28:46;91301.50;;;-1.23;100.00
59274;BME280;45044;41.572;24.730;2024-03-22T01:31:12;91308.94;;;-1.22;100.00
59274;BME280;45044;41.572;24.730;2024-03-22T01:33:38;91300.66;;;-1.50;100.00
59274;BME280;45044;41.572;24.730;2024-03-22T01:36:04;91310.16;;;-1.28;100.00
59274;BME280;45044;41.572;24.730;2024-03-22T01:38:31;91312.59;;;-1.14;100.00
59274;BME280;45044;41.572;24.730;2024-03-22T01:40:57;91295.19;;;-0.99;100.00
59274;BME280;45044;41.572;24.730;2024-03-22T01:43:22;91298.53;;;-0.90;100.00
59274;BME280;45044;41.572;24.730;2024-03-22T01:45:48;91302.78;;;-0.85;100.00
59274;BME280;45044;41.572;24.730;2024-03-22T01:48:14;91293.22;;;-1.02;100.00
59274;BME280;45044;41.572;24.730;2024-03-22T01:50:41;91301.69;;;-1.11;100.00
59274;BME280;45044;41.572;24.730;2024-03-22T01:53:08;91302.63;;;-0.98;100.00
59274;BME280;45044;41.572;24.730;2024-03-22T01:55:34;91298.06;;;-1.10;100.00
59274;BME280;45044;41.572;24.730;2024-03-22T01:58:00;91296.97;;;-1.09;100.00
59274;BME280;45044;41.572;24.730;2024-03-22T02:00:26;91294.56;;;-1.05;100.00
59274;BME280;45044;41.572;24.730;2024-03-22T02:02:51;91296.34;;;-1.23;100.00
59274;BME280;45044;41.572;24.730;2024-03-22T02:05:18;91282.22;;;-1.35;100.00
59274;BME280;45044;41.572;24.730;2024-03-22T02:07:47;91291.34;;;-1.11;100.00
59274;BME280;45044;41.572;24.730;2024-03-22T02:10:13;91296.19;;;-1.18;100.00
59274;BME280;45044;41.572;24.730;2024-03-22T02:12:40;91306.16;;;-1.43;100.00
59274;BME280;45044;41.572;24.730;2024-03-22T02:15:07;91315.59;;;-1.70;100.00
59274;BME280;45044;41.572;24.730;2024-03-22T02:17:35;91315.28;;;-1.69;100.00
59274;BME280;45044;41.572;24.730;2024-03-22T02:20:02;91314.44;;;-1.87;100.00
59274;BME280;45044;41.572;24.730;2024-03-22T02:22:38;91310.81;;;-1.86;100.00
59274;BME280;45044;41.572;24.730;2024-03-22T02:25:04;91312.69;;;-1.77;100.00
59274;BME280;45044;41.572;24.730;2024-03-22T02:27:30;91319.63;;;-1.46;100.00
59274;BME280;45044;41.572;24.730;2024-03-22T02:29:56;91309.53;;;-1.34;100.00
59274;BME280;45044;41.572;24.730;2024-03-22T02:32:22;91304.69;;;-1.26;100.00
59274;BME280;45044;41.572;24.730;2024-03-22T02:34:47;91301.66;;;-1.19;100.00
59274;BME280;45044;41.572;24.730;2024-03-22T02:37:13;91302.59;;;-1.15;100.00
59274;BME280;45044;41.572;24.730;2024-03-22T02:39:39;91302.28;;;-1.14;100.00
59274;BME280;45044;41.572;24.730;2024-03-22T02:42:05;91300.50;;;-1.04;100.00
59274;BME280;45044;41.572;24.730;2024-03-22T02:44:30;91294.72;;;-1.01;100.00
59274;BME280;45044;41.572;24.730;2024-03-22T02:46:56;91299.44;;;-0.94;100.00
59274;BME280;45044;41.572;24.730;2024-03-22T02:49:22;91304.25;;;-1.11;100.00
59274;BME280;45044;41.572;24.730;2024-03-22T02:51:47;91305.69;;;-1.45;100.00
59274;BME280;45044;41.572;24.730;2024-03-22T02:54:13;91300.47;;;-1.63;100.00
59274;BME280;45044;41.572;24.730;2024-03-22T02:56:39;91307.84;;;-1.70;100.00
59274;BME280;45044;41.572;24.730;2024-03-22T02:59:05;91322.16;;;-1.64;100.00
59274;BME280;45044;41.572;24.730;2024-03-22T03:01:30;91316.47;;;-1.43;100.00
59274;BME280;45044;41.572;24.730;2024-03-22T03:03:56;91314.88;;;-1.62;100.00
59274;BME280;45044;41.572;24.730;2024-03-22T03:06:22;91321.56;;;-1.61;100.00
59274;BME280;45044;41.572;24.730;2024-03-22T03:08:47;91321.56;;;-1.61;100.00
59274;BME280;45044;41.572;24.730;2024-03-22T03:11:16;91321.91;;;-1.45;100.00
59274;BME280;45044;41.572;24.730;2024-03-22T03:13:42;91321.09;;;-1.22;100.00
59274;BME280;45044;41.572;24.730;2024-03-22T03:16:08;91323.84;;;-1.18;100.00
59274;BME280;45044;41.572;24.730;2024-03-22T03:18:33;91313.06;;;-1.21;100.00
59274;BME280;45044;41.572;24.730;2024-03-22T03:20:59;91313.94;;;-1.25;100.00
59274;BME280;45044;41.572;24.730;2024-03-22T03:23:25;91314.25;;;-1.18;100.00
59274;BME280;45044;41.572;24.730;2024-03-22T03:25:50;91312.16;;;-1.07;100.00
59274;BME280;45044;41.572;24.730;2024-03-22T03:28:16;91317.03;;;-1.05;100.00
59274;BME280;45044;41.572;24.730;2024-03-22T03:30:42;91309.88;;;-1.09;100.00
59274;BME280;45044;41.572;24.730;2024-03-22T03:33:09;91318.22;;;-1.21;100.00
59274;BME280;45044;41.572;24.730;2024-03-22T03:35:35;91319.84;;;-1.34;100.00
59274;BME280;45044;41.572;24.730;2024-03-22T03:38:00;91310.47;;;-1.61;100.00
59274;BME280;45044;41.572;24.730;2024-03-22T03:40:26;91316.41;;;-1.61;100.00
59274;BME280;45044;41.572;24.730;2024-03-22T03:42:53;91327.19;;;-1.59;100.00
59274;BME280;45044;41.572;24.730;2024-03-22T03:45:19;91329.09;;;-1.73;100.00
59274;BME280;45044;41.572;24.730;2024-03-22T03:47:45;91312.50;;;-1.81;100.00
59274;BME280;45044;41.572;24.730;2024-03-22T03:50:10;91326.38;;;-1.68;100.00
59274;BME280;45044;41.572;24.730;2024-03-22T03:52:36;91326.66;;;-1.70;100.00
59274;BME280;45044;41.572;24.730;2024-03-22T03:55:02;91323.66;;;-1.63;100.00
59274;BME280;45044;41.572;24.730;2024-03-22T03:57:29;91320.25;;;-1.49;100.00
59274;BME280;45044;41.572;24.730;2024-03-22T03:59:55;91313.28;;;-1.40;100.00
59274;BME280;45044;41.572;24.730;2024-03-22T04:02:20;91319.22;;;-1.30;100.00
59274;BME280;45044;41.572;24.730;2024-03-22T04:04:46;91321.56;;;-1.20;100.00
59274;BME280;45044;41.572;24.730;2024-03-22T04:07:12;91313.03;;;-1.29;100.00
59274;BME280;45044;41.572;24.730;2024-03-22T04:09:38;91325.59;;;-1.37;100.00
59274;BME280;45044;41.572;24.730;2024-03-22T04:12:04;91326.88;;;-1.57;100.00
59274;BME280;45044;41.572;24.730;2024-03-22T04:14:30;91320.09;;;-1.76;100.00
59274;BME280;45044;41.572;24.730;2024-03-22T04:16:55;91333.97;;;-1.95;100.00
59274;BME280;45044;41.572;24.730;2024-03-22T04:19:21;91324.34;;;-1.80;100.00
59274;BME280;45044;41.572;24.730;2024-03-22T04:21:48;91331.19;;;-1.75;100.00
59274;BME280;45044;41.572;24.730;2024-03-22T04:24:14;91333.25;;;-1.86;100.00
59274;BME280;45044;41.572;24.730;2024-03-22T04:26:40;91327.97;;;-1.81;100.00
59274;BME280;45044;41.572;24.730;2024-03-22T04:29:05;91340.91;;;-1.72;100.00
59274;BME280;45044;41.572;24.730;2024-03-22T04:31:31;91340.00;;;-1.76;100.00
59274;BME280;45044;41.572;24.730;2024-03-22T04:33:57;91340.91;;;-1.72;100.00
59274;BME280;45044;41.572;24.730;2024-03-22T04:36:23;91346.91;;;-1.54;100.00
59274;BME280;45044;41.572;24.730;2024-03-22T04:38:49;91336.00;;;-1.51;100.00
59274;BME280;45044;41.572;24.730;2024-03-22T04:41:15;91348.84;;;-1.28;100.00
59274;BME280;45044;41.572;24.730;2024-03-22T04:43:40;91347.13;;;-1.33;100.00
59274;BME280;45044;41.572;24.730;2024-03-22T04:46:06;91353.22;;;-1.28;100.00
59274;BME280;45044;41.572;24.730;2024-03-22T04:48:32;91354.03;;;-1.19;100.00
59274;BME280;45044;41.572;24.730;2024-03-22T04:50:57;91357.25;;;-1.45;100.00
59274;BME280;45044;41.572;24.730;2024-03-22T04:53:23;91353.09;;;-1.64;100.00
59274;BME280;45044;41.572;24.730;2024-03-22T04:55:50;91355.53;;;-1.59;100.00
59274;BME280;45044;41.572;24.730;2024-03-22T04:58:17;91344.63;;;-1.55;100.00
59274;BME280;45044;41.572;24.730;2024-03-22T05:00:44;91351.38;;;-1.69;100.00
59274;BME280;45044;41.572;24.730;2024-03-22T05:03:10;91343.69;;;-1.60;100.00
59274;BME280;45044;41.572;24.730;2024-03-22T05:05:36;91352.13;;;-1.36;100.00
59274;BME280;45044;41.572;24.730;2024-03-22T05:08:02;91346.47;;;-1.47;100.00
59274;BME280;45044;41.572;24.730;2024-03-22T05:10:29;91347.91;;;-1.32;100.00
59274;BME280;45044;41.572;24.730;2024-03-22T05:12:56;91361.91;;;-1.24;100.00
59274;BME280;45044;41.572;24.730;2024-03-22T05:15:22;91356.94;;;-1.12;100.00
59274;BME280;45044;41.572;24.730;2024-03-22T05:17:48;91359.25;;;-1.01;100.00
59274;BME280;45044;41.572;24.730;2024-03-22T05:20:14;91365.31;;;-1.06;100.00
59274;BME280;45044;41.572;24.730;2024-03-22T05:22:40;91365.63;;;-0.99;100.00
59274;BME280;45044;41.572;24.730;2024-03-22T05:25:06;91367.78;;;-0.83;100.00
59274;BME280;45044;41.572;24.730;2024-03-22T05:27:33;91367.66;;;-0.78;100.00
59274;BME280;45044;41.572;24.730;2024-03-22T05:29:59;91370.06;;;-0.81;100.00
59274;BME280;45044;41.572;24.730;2024-03-22T05:32:25;91374.66;;;-0.78;100.00
59274;BME280;45044;41.572;24.730;2024-03-22T05:34:52;91374.59;;;-0.96;100.00
59274;BME280;45044;41.572;24.730;2024-03-22T05:37:22;91379.94;;;-0.83;100.00
59274;BME280;45044;41.572;24.730;2024-03-22T05:39:48;91373.91;;;-0.61;100.00
59274;BME280;45044;41.572;24.730;2024-03-22T05:42:14;91378.72;;;0.65;100.00
59274;BME280;45044;41.572;24.730;2024-03-22T05:44:40;91372.00;;;2.74;100.00
59274;BME280;45044;41.572;24.730;2024-03-22T05:47:06;91388.22;;;4.70;100.00
59274;BME280;45044;41.572;24.730;2024-03-22T05:49:31;91392.75;;;6.06;100.00
59274;BME280;45044;41.572;24.730;2024-03-22T05:51:57;91385.59;;;5.67;100.00
59274;BME280;45044;41.572;24.730;2024-03-22T05:54:23;91385.31;;;7.61;100.00
59274;BME280;45044;41.572;24.730;2024-03-22T05:56:49;91396.97;;;8.94;100.00
59274;BME280;45044;41.572;24.730;2024-03-22T05:59:16;91391.03;;;10.03;98.06
59274;BME280;45044;41.572;24.730;2024-03-22T06:01:42;91385.97;;;10.43;90.67
59274;BME280;45044;41.572;24.730;2024-03-22T06:04:08;91391.88;;;10.29;88.17
59274;BME280;45044;41.572;24.730;2024-03-22T06:06:34;91390.31;;;11.68;79.44
59274;BME280;45044;41.572;24.730;2024-03-22T06:09:01;91381.47;;;12.52;70.19
59274;BME280;45044;41.572;24.730;2024-03-22T06:11:30;91392.47;;;13.11;66.15
59274;BME280;45044;41.572;24.730;2024-03-22T06:13:55;91390.03;;;13.88;63.16
59274;BME280;45044;41.572;24.730;2024-03-22T06:16:21;91392.81;;;13.73;61.79
59274;BME280;45044;41.572;24.730;2024-03-22T06:18:47;91386.78;;;12.41;63.54
59274;BME280;45044;41.572;24.730;2024-03-22T06:21:13;91396.22;;;12.27;68.75
59274;BME280;45044;41.572;24.730;2024-03-22T06:23:51;91385.59;;;13.24;63.14
59274;BME280;45044;41.572;24.730;2024-03-22T06:26:17;91389.94;;;11.55;70.18
59274;BME280;45044;41.572;24.730;2024-03-22T06:28:43;91392.13;;;12.15;79.44
59274;BME280;45044;41.572;24.730;2024-03-22T06:31:09;91382.66;;;14.07;61.92
59274;BME280;45044;41.572;24.730;2024-03-22T06:33:35;91384.69;;;14.65;59.66
59274;BME280;45044;41.572;24.730;2024-03-22T06:36:02;91382.06;;;15.52;57.58
59274;BME280;45044;41.572;24.730;2024-03-22T06:38:29;91387.41;;;16.98;53.50
59274;BME280;45044;41.572;24.730;2024-03-22T06:40:55;91369.25;;;17.33;52.95
59274;BME280;45044;41.572;24.730;2024-03-22T06:43:20;91376.97;;;17.07;50.23
59274;BME280;45044;41.572;24.730;2024-03-22T06:45:46;91379.13;;;17.66;49.37
59274;BME280;45044;41.572;24.730;2024-03-22T06:48:12;91369.00;;;16.09;49.28
59274;BME280;45044;41.572;24.730;2024-03-22T06:50:37;91375.38;;;17.64;46.94
59274;BME280;45044;41.572;24.730;2024-03-22T06:53:03;91380.31;;;18.12;45.24
59274;BME280;45044;41.572;24.730;2024-03-22T06:55:29;91385.75;;;18.38;45.22
59274;BME280;45044;41.572;24.730;2024-03-22T06:57:55;91390.00;;;18.78;44.80
59274;BME280;45044;41.572;24.730;2024-03-22T07:00:21;91385.63;;;20.15;41.82
59274;BME280;45044;41.572;24.730;2024-03-22T07:02:47;91387.00;;;19.45;41.17
59274;BME280;45044;41.572;24.730;2024-03-22T07:05:12;91383.72;;;19.41;42.17
59274;BME280;45044;41.572;24.730;2024-03-22T07:07:38;91380.50;;;20.65;40.41
59274;BME280;45044;41.572;24.730;2024-03-22T07:10:05;91395.19;;;19.37;41.35
59274;BME280;45044;41.572;24.730;2024-03-22T07:12:34;91391.31;;;17.30;43.55
59274;BME280;45044;41.572;24.730;2024-03-22T07:15:01;91394.66;;;17.68;43.57
59274;BME280;45044;41.572;24.730;2024-03-22T07:17:27;91387.56;;;17.94;41.06
59274;BME280;45044;41.572;24.730;2024-03-22T07:19:53;91381.59;;;17.23;43.09
59274;BME280;45044;41.572;24.730;2024-03-22T07:22:20;91377.22;;;19.90;40.24
59274;BME280;45044;41.572;24.730;2024-03-22T07:24:46;91398.06;;;19.30;40.71
59274;BME280;45044;41.572;24.730;2024-03-22T07:27:16;91396.97;;;17.82;41.24
59274;BME280;45044;41.572;24.730;2024-03-22T07:29:43;91402.56;;;18.35;42.37
59274;BME280;45044;41.572;24.730;2024-03-22T07:32:09;91401.97;;;17.80;40.56
59274;BME280;45044;41.572;24.730;2024-03-22T07:34:34;91405.72;;;16.11;42.92
59274;BME280;45044;41.572;24.730;2024-03-22T07:37:00;91401.66;;;16.47;43.17
59274;BME280;45044;41.572;24.730;2024-03-22T07:39:26;91397.13;;;16.68;40.28
59274;BME280;45044;41.572;24.730;2024-03-22T07:41:52;91418.03;;;14.94;43.14
59274;BME280;45044;41.572;24.730;2024-03-22T07:44:17;91408.34;;;13.03;44.87
59274;BME280;45044;41.572;24.730;2024-03-22T07:46:45;91404.25;;;12.91;45.92
59274;BME280;45044;41.572;24.730;2024-03-22T07:49:13;91407.47;;;13.25;47.14
59274;BME280;45044;41.572;24.730;2024-03-22T07:51:39;91416.09;;;14.28;45.46
59274;BME280;45044;41.572;24.730;2024-03-22T07:54:05;91405.91;;;14.27;45.15
59274;BME280;45044;41.572;24.730;2024-03-22T07:56:31;91397.78;;;14.76;43.13
59274;BME280;45044;41.572;24.730;2024-03-22T07:58:57;91406.75;;;12.34;45.22
59274;BME280;45044;41.572;24.730;2024-03-22T08:01:23;91400.84;;;15.06;45.02
59274;BME280;45044;41.572;24.730;2024-03-22T08:03:50;91395.66;;;16.02;43.17
59274;BME280;45044;41.572;24.730;2024-03-22T08:06:16;91398.63;;;17.06;42.30
59274;BME280;45044;41.572;24.730;2024-03-22T08:08:42;91402.88;;;18.66;40.94
59274;BME280;45044;41.572;24.730;2024-03-22T08:11:07;91401.34;;;20.35;38.40
59274;BME280;45044;41.572;24.730;2024-03-22T08:13:33;91409.56;;;20.86;37.18
59274;BME280;45044;41.572;24.730;2024-03-22T08:15:59;91402.97;;;21.00;36.03
59274;BME280;45044;41.572;24.730;2024-03-22T08:18:25;91400.75;;;20.05;37.30
59274;BME280;45044;41.572;24.730;2024-03-22T08:20:51;91409.50;;;19.44;37.82
59274;BME280;45044;41.572;24.730;2024-03-22T08:23:16;91407.94;;;19.03;38.04
59274;BME280;45044;41.572;24.730;2024-03-22T08:25:46;91401.63;;;20.02;38.09
59274;BME280;45044;41.572;24.730;2024-03-22T08:28:12;91409.97;;;18.99;37.33
59274;BME280;45044;41.572;24.730;2024-03-22T08:30:39;91407.09;;;20.11;36.78
59274;BME280;45044;41.572;24.730;2024-03-22T08:33:05;91410.44;;;20.60;36.76
59274;BME280;45044;41.572;24.730;2024-03-22T08:35:31;91415.72;;;20.15;35.74
59274;BME280;45044;41.572;24.730;2024-03-22T08:37:57;91402.56;;;20.88;35.73
59274;BME280;45044;41.572;24.730;2024-03-22T08:40:24;91401.91;;;20.75;36.07
59274;BME280;45044;41.572;24.730;2024-03-22T08:42:50;91404.44;;;21.74;35.66
59274;BME280;45044;41.572;24.730;2024-03-22T08:45:16;91395.38;;;20.76;36.55
59274;BME280;45044;41.572;24.730;2024-03-22T08:47:42;91398.88;;;20.63;37.19
59274;BME280;45044;41.572;24.730;2024-03-22T08:50:09;91386.22;;;20.77;36.04
59274;BME280;45044;41.572;24.730;2024-03-22T08:52:35;91396.84;;;21.22;34.29
59274;BME280;45044;41.572;24.730;2024-03-22T08:55:01;91400.38;;;22.10;35.85
59274;BME280;45044;41.572;24.730;2024-03-22T08:57:27;91393.03;;;21.32;34.04
59274;BME280;45044;41.572;24.730;2024-03-22T08:59:53;91396.38;;;22.06;34.28
59274;BME280;45044;41.572;24.730;2024-03-22T09:02:18;91393.50;;;21.90;34.03
59274;BME280;45044;41.572;24.730;2024-03-22T09:04:44;91402.72;;;19.91;34.88
59274;BME280;45044;41.572;24.730;2024-03-22T09:07:10;91395.53;;;20.50;35.43
59274;BME280;45044;41.572;24.730;2024-03-22T09:09:35;91399.25;;;19.55;35.72
59274;BME280;45044;41.572;24.730;2024-03-22T09:12:01;91400.22;;;19.22;35.66
59274;BME280;45044;41.572;24.730;2024-03-22T09:14:27;91402.53;;;19.72;34.78
59274;BME280;45044;41.572;24.730;2024-03-22T09:16:52;91404.94;;;18.46;35.97
59274;BME280;45044;41.572;24.730;2024-03-22T09:19:19;91396.81;;;17.56;38.82
59274;BME280;45044;41.572;24.730;2024-03-22T09:21:44;91408.75;;;16.33;38.39
59274;BME280;45044;41.572;24.730;2024-03-22T09:24:10;91399.34;;;16.90;37.57
59274;BME280;45044;41.572;24.730;2024-03-22T09:26:36;91397.84;;;15.04;40.56
59274;BME280;45044;41.572;24.730;2024-03-22T09:29:01;91400.94;;;13.94;40.22
59274;BME280;45044;41.572;24.730;2024-03-22T09:31:30;91400.19;;;14.32;41.84
59274;BME280;45044;41.572;24.730;2024-03-22T09:33:56;91383.38;;;15.88;41.64
59274;BME280;45044;41.572;24.730;2024-03-22T09:36:22;91390.88;;;16.37;38.83
59274;BME280;45044;41.572;24.730;2024-03-22T09:38:48;91397.75;;;15.87;40.32
59274;BME280;45044;41.572;24.730;2024-03-22T09:41:14;91400.22;;;14.94;40.99
59274;BME280;45044;41.572;24.730;2024-03-22T09:43:40;91391.59;;;15.93;42.71
59274;BME280;45044;41.572;24.730;2024-03-22T09:46:06;91389.31;;;15.96;39.54
59274;BME280;45044;41.572;24.730;2024-03-22T09:48:33;91395.06;;;13.75;40.93
59274;BME280;45044;41.572;24.730;2024-03-22T09:51:00;91390.72;;;13.92;41.23
59274;BME280;45044;41.572;24.730;2024-03-22T09:53:27;91393.22;;;13.68;41.54
59274;BME280;45044;41.572;24.730;2024-03-22T09:55:57;91382.47;;;14.95;40.77
59274;BME280;45044;41.572;24.730;2024-03-22T09:58:25;91383.81;;;14.44;40.92
59274;BME280;45044;41.572;24.730;2024-03-22T10:00:50;91389.38;;;14.19;41.84
59274;BME280;45044;41.572;24.730;2024-03-22T10:03:16;91395.06;;;14.48;39.83
59274;BME280;45044;41.572;24.730;2024-03-22T10:05:42;91392.44;;;14.48;41.40
59274;BME280;45044;41.572;24.730;2024-03-22T10:08:08;91383.75;;;14.48;40.35
59274;BME280;45044;41.572;24.730;2024-03-22T10:10:34;91391.06;;;13.56;39.15
59274;BME280;45044;41.572;24.730;2024-03-22T10:13:01;91381.75;;;14.24;39.43
59274;BME280;45044;41.572;24.730;2024-03-22T10:15:26;91385.88;;;13.87;37.66
59274;BME280;45044;41.572;24.730;2024-03-22T10:17:52;91382.69;;;14.03;38.82
59274;BME280;45044;41.572;24.730;2024-03-22T10:20:21;91385.75;;;13.59;39.48
59274;BME280;45044;41.572;24.730;2024-03-22T10:22:55;91385.59;;;13.77;39.95
59274;BME280;45044;41.572;24.730;2024-03-22T10:25:25;91380.50;;;13.98;39.45
59274;BME280;45044;41.572;24.730;2024-03-22T10:27:53;91381.41;;;13.80;39.28
59274;BME280;45044;41.572;24.730;2024-03-22T10:30:18;91373.59;;;13.69;39.98
59274;BME280;45044;41.572;24.730;2024-03-22T10:32:44;91371.09;;;13.47;41.31
59274;BME280;45044;41.572;24.730;2024-03-22T10:35:14;91364.94;;;14.42;38.47
59274;BME280;45044;41.572;24.730;2024-03-22T10:37:40;91361.75;;;14.90;39.31
59274;BME280;45044;41.572;24.730;2024-03-22T10:40:07;91366.16;;;15.52;40.06
59274;BME280;45044;41.572;24.730;2024-03-22T10:42:34;91354.50;;;15.69;37.85
59274;BME280;45044;41.572;24.730;2024-03-22T10:45:01;91348.91;;;16.12;39.12
59274;BME280;45044;41.572;24.730;2024-03-22T10:47:30;91343.22;;;16.71;38.04
59274;BME280;45044;41.572;24.730;2024-03-22T10:50:09;91355.28;;;16.75;36.48
59274;BME280;45044;41.572;24.730;2024-03-22T10:52:48;91343.34;;;16.84;37.59
59274;BME280;45044;41.572;24.730;2024-03-22T10:57:57;91332.38;;;17.52;37.14
59274;BME280;45044;41.572;24.730;2024-03-22T11:00:31;91342.84;;;17.43;35.66
59274;BME280;45044;41.572;24.730;2024-03-22T11:02:57;91332.66;;;16.87;35.02
59274;BME280;45044;41.572;24.730;2024-03-22T11:05:22;91333.16;;;16.99;36.01
59274;BME280;45044;41.572;24.730;2024-03-22T11:08:02;91328.34;;;16.57;38.22
59274;BME280;45044;41.572;24.730;2024-03-22T11:10:30;91331.91;;;16.50;36.72
59274;BME280;45044;41.572;24.730;2024-03-22T11:13:04;91324.59;;;16.54;35.40
59274;BME280;45044;41.572;24.730;2024-03-22T11:15:30;91327.34;;;16.87;34.30
59274;BME280;45044;41.572;24.730;2024-03-22T11:17:57;91322.50;;;16.45;34.60
59274;BME280;45044;41.572;24.730;2024-03-22T11:20:23;91311.63;;;16.76;34.27
59274;BME280;45044;41.572;24.730;2024-03-22T11:22:51;91313.28;;;17.24;36.63
59274;BME280;45044;41.572;24.730;2024-03-22T11:25:17;91305.94;;;17.62;35.69
59274;BME280;45044;41.572;24.730;2024-03-22T11:27:43;91303.63;;;17.47;35.27
59274;BME280;45044;41.572;24.730;2024-03-22T11:30:09;91308.69;;;16.54;35.32
59274;BME280;45044;41.572;24.730;2024-03-22T11:32:35;91302.13;;;16.79;34.87
59274;BME280;45044;41.572;24.730;2024-03-22T11:35:10;91307.19;;;16.53;34.53
59274;BME280;45044;41.572;24.730;2024-03-22T11:37:38;91296.19;;;16.34;35.95
59274;BME280;45044;41.572;24.730;2024-03-22T11:40:04;91290.75;;;16.42;36.10
59274;BME280;45044;41.572;24.730;2024-03-22T11:42:34;91294.59;;;16.57;34.93
59274;BME280;45044;41.572;24.730;2024-03-22T11:45:01;91310.84;;;16.59;35.09
59274;BME280;45044;41.572;24.730;2024-03-22T11:47:30;91303.50;;;16.30;36.17
59274;BME280;45044;41.572;24.730;2024-03-22T11:49:56;91297.97;;;16.21;34.64
59274;BME280;45044;41.572;24.730;2024-03-22T11:52:25;91295.66;;;16.23;36.05
59274;BME280;45044;41.572;24.730;2024-03-22T11:54:52;91296.66;;;16.29;37.20
59274;BME280;45044;41.572;24.730;2024-03-22T11:57:20;91279.34;;;16.61;34.23
59274;BME280;45044;41.572;24.730;2024-03-22T11:59:46;91284.41;;;15.95;34.71
59274;BME280;45044;41.572;24.730;2024-03-22T12:02:11;91287.59;;;14.62;35.62
59274;BME280;45044;41.572;24.730;2024-03-22T12:04:42;91288.94;;;14.74;33.82
59274;BME280;45044;41.572;24.730;2024-03-22T12:07:13;91290.34;;;14.86;35.54
59274;BME280;45044;41.572;24.730;2024-03-22T12:09:40;91280.44;;;13.61;32.21
59274;BME280;45044;41.572;24.730;2024-03-22T12:12:08;91279.69;;;14.31;37.47
59274;BME280;45044;41.572;24.730;2024-03-22T12:14:35;91282.78;;;14.25;32.02
59274;BME280;45044;41.572;24.730;2024-03-22T12:17:02;91269.91;;;14.28;34.14
59274;BME280;45044;41.572;24.730;2024-03-22T12:19:28;91276.72;;;14.56;34.92
59274;BME280;45044;41.572;24.730;2024-03-22T12:21:55;91265.19;;;14.98;33.76
59274;BME280;45044;41.572;24.730;2024-03-22T12:24:21;91267.25;;;14.59;34.20
59274;BME280;45044;41.572;24.730;2024-03-22T12:26:47;91270.09;;;14.13;33.70
59274;BME280;45044;41.572;24.730;2024-03-22T12:29:15;91266.81;;;14.33;33.80
59274;BME280;45044;41.572;24.730;2024-03-22T12:31:41;91256.16;;;14.40;32.03
59274;BME280;45044;41.572;24.730;2024-03-22T12:34:07;91252.44;;;14.37;34.62
59274;BME280;45044;41.572;24.730;2024-03-22T12:36:33;91251.75;;;14.61;35.62
59274;BME280;45044;41.572;24.730;2024-03-22T12:38:59;91242.78;;;14.79;35.00
59274;BME280;45044;41.572;24.730;2024-03-22T12:41:25;91251.34;;;14.90;34.33
59274;BME280;45044;41.572;24.730;2024-03-22T12:43:51;91249.09;;;14.89;33.70